Time;durP1;ratioP1;P1;durP2;ratioP2;P2;SDS_P1;SDS_P2;PMS_P1;PMS_P2;Temp;Humidity;BMP_temperature;BMP_pressure;BME280_temperature;BME280_humidity;BME280_pressure;Samples;Min_cycle;Max_cycle;Signal;HPM_P1;HPM_P2
2022/02/26 00:01:01;;;;;;;1.80;1.70;;;5.70;71.10;;;;;;5035369;28;20601;-74
2022/02/26 00:03:28;;;;;;;1.88;1.77;;;5.70;71.20;;;;;;5041164;28;20433;-79
2022/02/26 00:05:55;;;;;;;1.60;1.50;;;5.70;71.50;;;;;;5035290;28;20679;-73
2022/02/26 00:08:22;;;;;;;2.08;1.98;;;5.60;71.80;;;;;;5036415;28;20239;-76
2022/02/26 00:10:49;;;;;;;1.90;1.80;;;5.60;72.30;;;;;;5037345;28;20265;-74
2022/02/26 00:13:16;;;;;;;1.55;1.55;;;5.60;72.10;;;;;;5035437;28;20226;-81
2022/02/26 00:15:43;;;;;;;1.90;1.80;;;5.60;72.30;;;;;;5041408;28;20492;-75
2022/02/26 00:18:12;;;;;;;2.47;2.28;;;5.60;72.40;;;;;;5037429;28;20219;-74
2022/02/26 00:20:39;;;;;;;2.10;2.00;;;5.60;72.30;;;;;;5037770;28;20285;-81
2022/02/26 00:23:06;;;;;;;2.00;1.90;;;5.60;72.60;;;;;;5035916;28;20711;-76
2022/02/26 00:25:33;;;;;;;2.15;1.60;;;5.60;72.70;;;;;;5034438;28;20269;-75
2022/02/26 00:28:00;;;;;;;2.17;2.08;;;5.50;72.80;;;;;;5046097;28;20218;-74
2022/02/26 00:30:27;;;;;;;2.63;1.95;;;5.50;73.00;;;;;;5041229;28;20192;-77
2022/02/26 00:32:54;;;;;;;1.60;1.50;;;5.50;72.80;;;;;;5035507;28;20268;-78
2022/02/26 00:35:23;;;;;;;2.17;2.03;;;5.50;73.00;;;;;;5037250;28;20206;-79
2022/02/26 00:37:50;;;;;;;2.00;1.90;;;5.50;73.00;;;;;;5036593;28;20242;-80
2022/02/26 00:40:17;;;;;;;2.13;2.03;;;5.50;73.00;;;;;;5030877;28;20774;-76
2022/02/26 00:42:44;;;;;;;1.67;1.60;;;5.50;72.80;;;;;;5036703;28;20234;-77
2022/02/26 00:45:11;;;;;;;2.00;1.90;;;5.50;72.80;;;;;;5036425;28;20245;-77
2022/02/26 00:47:38;;;;;;;2.00;1.90;;;5.40;73.10;;;;;;5036993;28;20238;-75
2022/02/26 00:50:06;;;;;;;2.45;2.25;;;5.40;73.80;;;;;;5033526;28;20195;-76
2022/02/26 00:52:35;;;;;;;2.28;2.17;;;5.40;73.60;;;;;;5037833;28;20223;-76
2022/02/26 00:55:06;;;;;;;1.40;1.40;;;5.40;73.80;;;;;;5040848;28;20199;-78
2022/02/26 00:57:33;;;;;;;1.92;1.83;;;5.40;73.80;;;;;;5036041;28;20226;-79
2022/02/26 01:00:00;;;;;;;1.90;1.90;;;5.40;73.60;;;;;;5035549;28;20245;-74
2022/02/26 01:02:27;;;;;;;2.17;2.08;;;5.50;73.70;;;;;;5035355;28;20239;-78
2022/02/26 01:04:54;;;;;;;1.90;1.80;;;5.50;74.10;;;;;;5037216;28;20569;-76
2022/02/26 01:07:21;;;;;;;2.20;2.00;;;5.40;74.20;;;;;;5036462;28;20229;-75
2022/02/26 01:09:50;;;;;;;1.58;1.58;;;5.40;73.60;;;;;;5035113;28;20561;-78
2022/02/26 01:12:17;;;;;;;1.92;1.92;;;5.40;74.10;;;;;;5030086;28;20223;-75
2022/02/26 01:14:46;;;;;;;2.10;2.00;;;5.50;73.80;;;;;;5031960;28;20670;-76
2022/02/26 01:19:55;;;;;;;2.08;1.98;;;5.40;74.00;;;;;;5030625;28;20281;-75
2022/02/26 01:22:22;;;;;;;1.88;1.85;;;5.40;73.90;;;;;;5044745;28;20227;-75
2022/02/26 01:24:51;;;;;;;1.92;1.83;;;5.40;74.20;;;;;;5033183;28;20207;-76
2022/02/26 01:27:18;;;;;;;2.15;2.05;;;5.40;74.40;;;;;;5027700;28;20215;-75
2022/02/26 01:29:45;;;;;;;2.15;2.05;;;5.30;74.40;;;;;;5053061;28;20199;-75
2022/02/26 01:32:12;;;;;;;2.38;2.25;;;5.30;74.20;;;;;;5049845;28;20227;-76
2022/02/26 01:34:39;;;;;;;2.08;1.98;;;5.30;74.30;;;;;;5038489;28;20195;-75
2022/02/26 01:37:06;;;;;;;2.17;2.08;;;5.30;74.50;;;;;;5030422;28;20223;-76
2022/02/26 01:39:34;;;;;;;2.25;2.15;;;5.30;74.40;;;;;;5024649;28;20236;-75
2022/02/26 01:42:03;;;;;;;1.65;1.63;;;5.30;74.50;;;;;;5051533;28;20222;-77
2022/02/26 01:44:30;;;;;;;1.80;1.70;;;5.30;74.20;;;;;;5023226;28;20197;-77
2022/02/26 01:46:58;;;;;;;2.00;1.90;;;5.30;74.30;;;;;;5023390;28;20192;-75
2022/02/26 01:49:25;;;;;;;1.98;1.75;;;5.30;75.00;;;;;;5032778;28;20229;-75
2022/02/26 01:51:52;;;;;;;1.63;1.63;;;5.30;74.60;;;;;;5025067;28;20204;-76
2022/02/26 01:54:20;;;;;;;1.75;1.65;;;5.20;75.00;;;;;;5019388;28;20204;-75
2022/02/26 01:56:47;;;;;;;1.98;1.88;;;5.20;75.00;;;;;;5032737;28;20291;-74
2022/02/26 01:59:18;;;;;;;2.10;2.00;;;5.20;75.20;;;;;;5026636;28;20674;-75
2022/02/26 02:01:45;;;;;;;2.53;2.00;;;5.20;74.90;;;;;;5025477;28;20208;-75
2022/02/26 02:04:14;;;;;;;2.13;2.05;;;5.30;75.00;;;;;;5024830;28;20969;-76
2022/02/26 02:06:41;;;;;;;2.10;2.00;;;5.30;75.00;;;;;;5035875;28;20207;-74
2022/02/26 02:09:08;;;;;;;1.98;1.88;;;5.30;74.90;;;;;;5031480;28;20654;-77
2022/02/26 02:11:36;;;;;;;2.03;1.92;;;5.30;74.60;;;;;;5040875;28;20190;-77
2022/02/26 02:14:03;;;;;;;2.20;2.10;;;5.40;74.60;;;;;;5038921;28;20216;-77
2022/02/26 02:16:31;;;;;;;1.70;1.45;;;5.30;74.70;;;;;;5039547;28;20208;-76
2022/02/26 02:18:58;;;;;;;2.17;2.08;;;5.30;74.90;;;;;;5029983;28;20219;-76
2022/02/26 02:21:25;;;;;;;1.52;1.42;;;5.30;74.60;;;;;;5025669;28;20220;-75
2022/02/26 02:23:54;;;;;;;1.73;1.63;;;5.30;74.70;;;;;;5030215;28;20216;-77
2022/02/26 02:26:21;;;;;;;2.20;2.10;;;5.30;74.80;;;;;;5042881;28;20196;-76
2022/02/26 02:28:48;;;;;;;2.28;2.10;;;5.40;74.70;;;;;;5026848;28;20305;-76
2022/02/26 02:31:18;;;;;;;2.20;2.10;;;5.30;75.90;;;;;;5030167;28;20199;-76
2022/02/26 02:33:46;;;;;;;2.30;2.20;;;5.30;75.30;;;;;;5038171;28;20634;-77
2022/02/26 02:36:14;;;;;;;2.08;1.88;;;5.20;75.40;;;;;;5030535;28;20192;-76
2022/02/26 02:38:41;;;;;;;1.95;1.85;;;5.20;76.00;;;;;;5032230;28;20227;-77
2022/02/26 02:41:09;;;;;;;1.65;1.55;;;5.20;75.10;;;;;;5032031;28;20219;-75
2022/02/26 02:43:36;;;;;;;1.60;1.60;;;5.20;75.30;;;;;;5050333;28;20211;-75
2022/02/26 02:46:04;;;;;;;1.60;1.50;;;5.20;75.20;;;;;;5048001;28;20658;-75
2022/02/26 02:48:31;;;;;;;2.03;1.92;;;5.20;75.00;;;;;;5033655;28;20442;-74
2022/02/26 02:50:59;;;;;;;2.10;2.00;;;5.20;75.20;;;;;;5030260;28;20633;-74
2022/02/26 02:53:26;;;;;;;2.25;2.05;;;5.10;75.10;;;;;;5027778;28;20219;-75
2022/02/26 02:55:53;;;;;;;2.00;1.90;;;5.10;75.30;;;;;;5035248;28;20207;-78
2022/02/26 02:58:22;;;;;;;2.50;2.40;;;4.90;75.60;;;;;;5042873;28;20237;-75
2022/02/26 03:00:50;;;;;;;1.55;1.45;;;4.80;76.00;;;;;;5055713;28;20423;-75
2022/02/26 03:03:17;;;;;;;2.30;2.20;;;4.70;76.40;;;;;;5053071;28;20685;-76
2022/02/26 03:05:45;;;;;;;1.20;1.20;;;4.60;76.50;;;;;;5051485;28;20209;-84
2022/02/26 03:08:12;;;;;;;1.98;1.88;;;4.60;76.80;;;;;;5069408;28;20222;-80
2022/02/26 03:10:39;;;;;;;1.77;1.77;;;4.50;77.50;;;;;;5060353;28;20206;-77
2022/02/26 03:13:06;;;;;;;2.20;2.10;;;4.50;77.50;;;;;;5057001;28;20222;-78
2022/02/26 03:15:35;;;;;;;2.15;2.05;;;4.30;78.00;;;;;;5054856;28;20202;-75
2022/02/26 03:18:02;;;;;;;1.77;1.75;;;4.30;78.30;;;;;;5054559;28;20596;-78
2022/02/26 03:20:29;;;;;;;2.00;1.90;;;4.20;78.50;;;;;;5055684;28;20198;-75
2022/02/26 03:22:56;;;;;;;2.20;2.10;;;4.10;78.20;;;;;;5052080;28;20223;-78
2022/02/26 03:25:23;;;;;;;1.80;1.70;;;4.00;78.70;;;;;;5054104;28;20268;-81
2022/02/26 03:27:51;;;;;;;2.20;2.10;;;4.10;79.10;;;;;;5057675;28;20229;-76
2022/02/26 03:30:19;;;;;;;2.30;2.20;;;4.00;79.20;;;;;;5054276;28;20568;-74
2022/02/26 03:32:47;;;;;;;2.10;2.00;;;4.10;80.50;;;;;;5047074;28;20598;-76
2022/02/26 03:35:14;;;;;;;1.75;1.75;;;4.10;79.30;;;;;;5032214;28;20274;-80
2022/02/26 03:37:42;;;;;;;2.67;2.58;;;4.00;79.80;;;;;;5032353;28;20227;-77
2022/02/26 03:40:10;;;;;;;2.20;2.10;;;4.00;79.20;;;;;;5033051;28;20191;-78
2022/02/26 03:42:38;;;;;;;2.38;2.20;;;4.00;79.40;;;;;;5028146;28;20652;-76
2022/02/26 03:45:07;;;;;;;2.13;2.03;;;4.00;80.30;;;;;;5032445;28;20202;-74
2022/02/26 03:47:35;;;;;;;2.40;2.30;;;4.00;80.50;;;;;;5030692;28;20227;-78
2022/02/26 03:50:04;;;;;;;2.20;2.03;;;4.00;80.00;;;;;;5037739;28;20196;-82
2022/02/26 03:52:31;;;;;;;2.42;2.33;;;4.10;79.80;;;;;;5037305;28;20196;-80
2022/02/26 03:55:02;;;;;;;2.35;2.10;;;4.10;79.60;;;;;;5036793;28;20627;-81
2022/02/26 03:57:29;;;;;;;2.65;2.45;;;4.10;78.80;;;;;;5037711;28;20203;-79
2022/02/26 03:59:56;;;;;;;2.30;2.20;;;4.10;79.90;;;;;;5029881;28;20214;-76
2022/02/26 04:02:24;;;;;;;2.35;2.25;;;4.00;80.50;;;;;;5031614;28;20218;-76
2022/02/26 04:04:51;;;;;;;2.30;2.20;;;4.00;81.40;;;;;;5030184;28;20211;-76
2022/02/26 04:07:19;;;;;;;2.40;2.30;;;4.00;80.50;;;;;;5027453;28;20218;-78
2022/02/26 04:09:46;;;;;;;2.80;2.70;;;4.00;79.80;;;;;;5029937;28;20223;-82
2022/02/26 04:12:13;;;;;;;2.03;1.92;;;3.90;79.90;;;;;;5028612;28;20199;-77
2022/02/26 04:14:40;;;;;;;2.08;1.98;;;3.80;80.70;;;;;;5032793;28;20246;-80
2022/02/26 04:17:08;;;;;;;2.38;2.28;;;3.80;80.50;;;;;;5030689;28;20203;-79
2022/02/26 04:19:35;;;;;;;2.60;2.40;;;3.80;80.10;;;;;;5028349;28;20231;-78
2022/02/26 04:22:02;;;;;;;2.53;2.33;;;3.80;80.00;;;;;;5031843;28;20282;-80
2022/02/26 04:24:30;;;;;;;2.05;1.95;;;3.80;80.10;;;;;;5029571;28;20223;-80
2022/02/26 04:26:57;;;;;;;2.20;2.10;;;3.70;80.50;;;;;;5028102;28;20610;-83
2022/02/26 04:29:24;;;;;;;2.35;2.25;;;3.70;80.90;;;;;;5025817;28;20595;-85
2022/02/26 04:31:51;;;;;;;2.30;2.20;;;3.60;81.10;;;;;;5027258;28;20199;-84
2022/02/26 04:34:18;;;;;;;2.58;2.38;;;3.60;81.50;;;;;;5044922;28;20406;-80
2022/02/26 04:36:45;;;;;;;2.13;2.03;;;3.60;81.90;;;;;;5035899;28;20572;-80
2022/02/26 04:39:13;;;;;;;2.58;2.47;;;3.60;82.30;;;;;;5033504;28;20713;-79
2022/02/26 04:41:41;;;;;;;2.40;2.30;;;3.60;81.80;;;;;;5032025;28;20199;-75
2022/02/26 04:44:08;;;;;;;2.50;2.30;;;3.60;82.20;;;;;;5032045;28;20223;-79
2022/02/26 04:46:35;;;;;;;2.08;1.98;;;3.60;82.60;;;;;;5030234;28;20196;-82
2022/02/26 04:49:02;;;;;;;2.42;2.33;;;3.70;82.20;;;;;;5032402;28;20222;-79
2022/02/26 04:51:29;;;;;;;2.60;2.45;;;3.70;82.10;;;;;;5036980;28;20192;-79
2022/02/26 04:53:56;;;;;;;2.63;2.53;;;3.70;82.00;;;;;;5054711;28;20214;-81
2022/02/26 04:56:23;;;;;;;2.40;2.30;;;3.70;82.10;;;;;;5062661;28;20214;-81
2022/02/26 04:58:52;;;;;;;2.50;2.40;;;3.70;82.80;;;;;;5045306;28;20257;-82
2022/02/26 05:01:19;;;;;;;2.78;2.58;;;3.70;82.80;;;;;;5036630;28;20287;-76
2022/02/26 05:03:46;;;;;;;2.42;2.33;;;3.70;82.80;;;;;;5036243;28;20283;-79
2022/02/26 05:06:13;;;;;;;2.60;2.50;;;3.60;82.40;;;;;;5035481;28;20200;-77
2022/02/26 05:08:40;;;;;;;2.10;2.00;;;3.60;82.50;;;;;;5035846;28;20305;-77
2022/02/26 05:11:07;;;;;;;2.67;2.50;;;3.60;82.70;;;;;;5031011;28;20204;-76
2022/02/26 05:13:34;;;;;;;2.45;2.35;;;3.60;83.20;;;;;;5030772;28;20217;-75
2022/02/26 05:16:02;;;;;;;2.42;2.33;;;3.50;83.40;;;;;;5035829;28;20204;-79
2022/02/26 05:18:29;;;;;;;2.40;2.30;;;3.50;83.80;;;;;;5041080;28;20227;-81
2022/02/26 05:20:56;;;;;;;2.55;2.45;;;3.50;84.10;;;;;;5034141;28;20224;-84
2022/02/26 05:23:23;;;;;;;2.30;2.20;;;3.50;83.20;;;;;;5036592;28;20235;-79
2022/02/26 05:25:50;;;;;;;2.65;2.50;;;3.50;83.60;;;;;;5039026;28;20200;-84
2022/02/26 05:28:17;;;;;;;2.28;2.17;;;3.50;83.80;;;;;;5042589;28;20277;-80
2022/02/26 05:30:44;;;;;;;2.30;2.20;;;3.40;83.40;;;;;;5049248;28;20202;-77
2022/02/26 05:33:13;;;;;;;2.60;2.50;;;3.40;83.20;;;;;;5050229;28;20258;-76
2022/02/26 05:35:40;;;;;;;2.40;2.30;;;3.40;84.00;;;;;;5036334;28;20728;-81
2022/02/26 05:38:07;;;;;;;2.25;2.15;;;3.30;83.70;;;;;;5032227;28;20231;-79
2022/02/26 05:40:34;;;;;;;2.83;2.63;;;3.30;84.10;;;;;;5028616;28;20201;-75
2022/02/26 05:43:01;;;;;;;2.65;2.55;;;3.30;83.70;;;;;;5034348;28;20242;-79
2022/02/26 05:45:28;;;;;;;2.88;2.67;;;3.30;84.40;;;;;;5038166;28;20218;-81
2022/02/26 05:47:55;;;;;;;2.60;2.50;;;3.30;83.70;;;;;;5026780;28;20220;-78
2022/02/26 05:50:23;;;;;;;2.50;2.40;;;3.40;83.20;;;;;;5033920;28;20550;-77
2022/02/26 05:52:50;;;;;;;3.03;2.83;;;3.50;83.00;;;;;;5027497;28;20192;-77
2022/02/26 05:55:17;;;;;;;2.60;2.40;;;3.50;82.90;;;;;;5025677;28;20227;-80
2022/02/26 05:57:44;;;;;;;2.72;2.58;;;3.50;82.50;;;;;;5025947;28;20219;-82
2022/02/26 06:00:12;;;;;;;2.50;2.30;;;3.40;82.80;;;;;;5030792;28;20609;-86
2022/02/26 06:02:39;;;;;;;2.65;2.45;;;3.50;82.70;;;;;;5033250;28;20242;-84
2022/02/26 06:05:07;;;;;;;2.70;2.60;;;3.50;82.80;;;;;;5029651;28;20763;-87
2022/02/26 06:07:36;;;;;;;2.33;2.22;;;3.50;83.30;;;;;;5032288;28;20204;-85
2022/02/26 06:10:04;;;;;;;2.80;2.70;;;3.40;83.20;;;;;;5026556;28;20731;-79
2022/02/26 06:12:31;;;;;;;2.95;2.55;;;3.40;83.80;;;;;;5029926;28;20203;-81
2022/02/26 06:14:58;;;;;;;2.83;2.60;;;3.30;84.30;;;;;;5030388;28;20223;-80
2022/02/26 06:17:25;;;;;;;2.45;2.35;;;3.20;84.40;;;;;;5031076;28;20621;-79
2022/02/26 06:19:52;;;;;;;2.72;2.53;;;3.30;86.00;;;;;;5027429;28;20226;-80
2022/02/26 06:22:19;;;;;;;2.70;2.60;;;3.30;83.90;;;;;;5026436;28;20632;-80
2022/02/26 06:24:48;;;;;;;3.45;3.22;;;3.20;83.80;;;;;;5037629;28;20219;-76
2022/02/26 06:27:15;;;;;;;2.95;2.85;;;3.20;84.30;;;;;;5031698;28;20635;-80
2022/02/26 06:29:42;;;;;;;2.85;2.65;;;3.10;85.60;;;;;;5033844;28;20223;-76
2022/02/26 06:32:09;;;;;;;3.20;3.10;;;3.10;86.80;;;;;;5025074;28;20200;-79
2022/02/26 06:34:36;;;;;;;3.10;2.90;;;3.10;86.00;;;;;;5028275;28;20215;-75
2022/02/26 06:37:04;;;;;;;2.45;2.25;;;3.10;85.50;;;;;;5027071;28;20202;-75
2022/02/26 06:39:31;;;;;;;3.17;2.97;;;3.00;86.20;;;;;;5028710;28;20252;-80
2022/02/26 06:42:00;;;;;;;2.97;2.78;;;3.00;86.10;;;;;;5029264;28;20701;-84
2022/02/26 06:44:27;;;;;;;2.88;2.78;;;2.90;86.40;;;;;;5028775;28;20235;-83
2022/02/26 06:46:54;;;;;;;2.22;2.13;;;2.90;85.80;;;;;;5020156;28;20188;-84
2022/02/26 06:49:21;;;;;;;3.28;3.08;;;3.10;84.10;;;;;;5018792;28;20227;-83
2022/02/26 06:51:48;;;;;;;2.60;2.50;;;3.30;84.90;;;;;;5024028;28;20210;-77
2022/02/26 06:54:15;;;;;;;2.45;2.35;;;3.40;84.20;;;;;;5026449;28;20269;-82
2022/02/26 06:56:42;;;;;;;2.60;2.50;;;3.60;83.00;;;;;;5025131;28;20602;-81
2022/02/26 06:59:10;;;;;;;2.50;2.40;;;3.70;82.50;;;;;;5024609;28;20219;-77
2022/02/26 07:01:38;;;;;;;2.35;2.25;;;3.80;82.30;;;;;;5027076;28;20207;-83
2022/02/26 07:04:05;;;;;;;2.47;2.38;;;3.90;82.50;;;;;;5027254;28;20223;-77
2022/02/26 07:06:32;;;;;;;2.45;2.35;;;3.90;82.70;;;;;;5020304;28;20514;-78
2022/02/26 07:08:59;;;;;;;2.70;2.58;;;3.90;82.40;;;;;;5021065;28;20224;-79
2022/02/26 07:11:26;;;;;;;2.47;2.38;;;3.90;82.70;;;;;;5026189;28;20196;-75
2022/02/26 07:13:53;;;;;;;3.03;2.88;;;4.00;82.50;;;;;;5023481;28;20218;-77
2022/02/26 07:16:21;;;;;;;2.40;2.30;;;4.00;83.20;;;;;;5029131;28;20203;-77
2022/02/26 07:18:48;;;;;;;2.65;2.40;;;4.20;83.20;;;;;;5067373;22;20243;-84
2022/02/26 07:21:15;;;;;;;2.75;2.50;;;5.10;83.10;;;;;;5067376;28;20224;-80
2022/02/26 07:23:42;;;;;;;3.47;2.42;;;6.00;81.50;;;;;;5059488;28;20230;-81
2022/02/26 07:26:10;;;;;;;2.10;2.00;;;6.90;81.00;;;;;;5052353;28;20213;-82
2022/02/26 07:28:37;;;;;;;1.92;1.83;;;7.60;79.40;;;;;;5054324;28;20734;-81
2022/02/26 07:31:04;;;;;;;2.90;2.70;;;8.10;78.30;;;;;;5050282;28;20203;-82
2022/02/26 07:33:32;;;;;;;2.40;2.20;;;8.40;77.40;;;;;;5055758;28;20229;-81
2022/02/26 07:35:59;;;;;;;2.60;2.40;;;8.90;76.20;;;;;;5069732;28;20240;-81
2022/02/26 07:38:26;;;;;;;2.50;2.35;;;9.30;76.30;;;;;;5064322;28;20280;-82
2022/02/26 07:40:53;;;;;;;2.75;2.55;;;9.50;75.30;;;;;;5069848;28;20346;-80
2022/02/26 07:43:21;;;;;;;2.13;2.03;;;9.60;74.70;;;;;;5068389;28;20210;-80
2022/02/26 07:45:48;;;;;;;1.90;1.80;;;9.80;73.80;;;;;;5070460;28;20606;-80
2022/02/26 07:48:15;;;;;;;2.10;2.00;;;9.80;74.40;;;;;;5069372;28;20203;-82
2022/02/26 07:50:43;;;;;;;2.25;2.05;;;9.90;73.50;;;;;;5058838;28;20203;-81
2022/02/26 07:53:11;;;;;;;1.85;1.75;;;10.10;73.60;;;;;;5067487;28;20183;-83
2022/02/26 07:55:38;;;;;;;1.95;1.85;;;10.30;73.10;;;;;;5058674;28;20203;-82
2022/02/26 07:58:06;;;;;;;2.40;2.30;;;10.40;72.40;;;;;;5067097;28;20229;-81
2022/02/26 08:00:33;;;;;;;1.77;1.67;;;10.60;72.40;;;;;;5068740;28;20205;-82
2022/02/26 08:03:01;;;;;;;1.77;1.67;;;10.90;71.90;;;;;;5069866;28;20271;-81
2022/02/26 08:05:28;;;;;;;2.00;1.88;;;10.90;72.20;;;;;;5070138;28;20285;-82
2022/02/26 08:07:57;;;;;;;2.20;2.00;;;11.00;72.20;;;;;;5073885;28;20240;-81
2022/02/26 08:10:25;;;;;;;1.85;1.75;;;11.10;71.60;;;;;;5066150;28;20222;-83
2022/02/26 08:12:53;;;;;;;1.90;1.80;;;11.40;72.30;;;;;;5071338;28;20194;-81
2022/02/26 08:15:23;;;;;;;2.00;1.90;;;11.50;71.50;;;;;;5059930;28;20250;-84
2022/02/26 08:17:50;;;;;;;1.75;1.65;;;11.40;70.30;;;;;;5066575;28;20572;-82
2022/02/26 08:20:19;;;;;;;2.10;2.00;;;11.30;70.70;;;;;;5062286;28;20655;-81
2022/02/26 08:22:47;;;;;;;2.08;1.98;;;11.60;71.20;;;;;;5053344;28;20215;-81
2022/02/26 08:25:16;;;;;;;3.38;1.77;;;12.00;71.00;;;;;;5049539;28;20239;-80
2022/02/26 08:27:44;;;;;;;1.83;1.30;;;12.30;70.40;;;;;;5053043;28;20793;-82
2022/02/26 08:30:13;;;;;;;1.70;1.60;;;12.30;70.00;;;;;;5051233;28;20222;-81
2022/02/26 08:32:40;;;;;;;2.38;1.63;;;12.40;69.40;;;;;;5054252;28;20194;-81
2022/02/26 08:35:12;;;;;;;1.80;1.70;;;12.50;68.80;;;;;;5048389;28;20215;-81
2022/02/26 08:37:40;;;;;;;1.70;1.60;;;12.60;68.60;;;;;;5054540;28;20238;-81
2022/02/26 08:40:10;;;;;;;1.60;1.50;;;12.60;67.90;;;;;;5065661;28;20214;-81
2022/02/26 08:42:38;;;;;;;1.70;1.60;;;12.80;67.60;;;;;;5055897;28;20206;-83
2022/02/26 08:45:08;;;;;;;3.17;1.30;;;13.00;67.70;;;;;;5064771;28;20227;-82
2022/02/26 08:47:35;;;;;;;2.10;1.65;;;13.10;66.20;;;;;;5069302;28;20183;-82
2022/02/26 08:50:05;;;;;;;1.85;1.70;;;13.00;64.60;;;;;;5057402;28;20210;-82
2022/02/26 08:52:33;;;;;;;2.17;2.08;;;12.90;64.60;;;;;;5052549;28;20199;-79
2022/02/26 08:55:00;;;;;;;1.55;1.50;;;13.00;64.70;;;;;;5048259;28;20221;-79
2022/02/26 08:57:27;;;;;;;2.00;1.90;;;13.20;64.70;;;;;;5050030;28;20223;-81
2022/02/26 08:59:56;;;;;;;1.50;1.50;;;13.40;64.60;;;;;;5045347;28;20233;-81
2022/02/26 09:02:23;;;;;;;1.50;1.45;;;13.70;63.60;;;;;;5051507;28;20195;-81
2022/02/26 09:04:51;;;;;;;1.30;1.20;;;13.60;63.00;;;;;;5047410;28;20379;-80
2022/02/26 09:07:18;;;;;;;1.10;1.10;;;13.70;63.50;;;;;;5045500;28;20215;-80
2022/02/26 09:09:45;;;;;;;1.95;1.10;;;13.50;60.70;;;;;;5047371;28;20227;-81
2022/02/26 09:12:12;;;;;;;1.30;1.20;;;13.50;61.60;;;;;;5054065;28;20222;-81
2022/02/26 09:14:39;;;;;;;3.15;1.20;;;13.40;60.90;;;;;;5055940;28;20214;-81
2022/02/26 09:17:08;;;;;;;1.95;1.25;;;13.30;59.00;;;;;;5051383;28;20309;-81
2022/02/26 09:19:36;;;;;;;1.15;1.15;;;13.10;59.10;;;;;;5049552;28;20225;-82
2022/02/26 09:22:04;;;;;;;1.38;1.27;;;12.90;58.50;;;;;;5051008;28;20198;-82
2022/02/26 09:24:32;;;;;;;1.38;1.25;;;12.80;60.00;;;;;;5058904;28;20222;-81
2022/02/26 09:27:00;;;;;;;1.20;1.10;;;13.00;60.90;;;;;;5049766;28;20273;-83
2022/02/26 09:29:27;;;;;;;1.45;1.40;;;13.40;60.50;;;;;;5063260;28;20719;-82
2022/02/26 09:31:54;;;;;;;1.80;1.33;;;13.70;59.50;;;;;;5052670;28;20203;-82
2022/02/26 09:34:23;;;;;;;1.48;1.48;;;13.60;58.90;;;;;;5052965;28;20215;-82
2022/02/26 09:36:53;;;;;;;1.80;1.20;;;13.70;58.40;;;;;;5061328;28;20198;-85
2022/02/26 09:39:20;;;;;;;1.23;1.20;;;13.70;58.00;;;;;;5068248;28;20246;-84
2022/02/26 09:41:50;;;;;;;1.10;1.10;;;13.90;59.80;;;;;;5062421;28;20223;-83
2022/02/26 09:44:18;;;;;;;1.08;1.08;;;14.10;59.30;;;;;;5059747;28;20222;-85
2022/02/26 09:46:46;;;;;;;1.40;1.40;;;14.10;59.40;;;;;;5071209;28;20709;-83
2022/02/26 09:49:14;;;;;;;1.40;1.30;;;14.20;58.50;;;;;;5059898;28;20279;-83
2022/02/26 09:51:44;;;;;;;1.05;1.05;;;14.10;57.70;;;;;;5054079;28;20604;-79
2022/02/26 09:54:15;;;;;;;1.08;1.08;;;13.90;56.80;;;;;;5041587;28;20230;-80
2022/02/26 09:56:42;;;;;;;1.20;1.10;;;13.10;56.40;;;;;;5044127;28;20550;-83
2022/02/26 09:59:10;;;;;;;1.00;1.00;;;12.80;57.10;;;;;;5044796;28;20840;-80
2022/02/26 10:01:55;;;;;;;1.10;1.00;;;12.70;57.60;;;;;;5047169;28;20201;-79
2022/02/26 10:04:22;;;;;;;1.27;0.90;;;13.00;58.80;;;;;;5044176;28;20227;-79
2022/02/26 10:06:51;;;;;;;0.90;0.90;;;12.90;56.60;;;;;;5044056;28;20632;-81
2022/02/26 10:09:18;;;;;;;1.17;1.17;;;12.90;57.40;;;;;;5050475;28;20572;-80
2022/02/26 10:11:45;;;;;;;1.15;1.15;;;12.80;57.00;;;;;;5046530;28;20195;-80
2022/02/26 10:14:14;;;;;;;1.20;1.20;;;13.10;57.20;;;;;;5052784;28;20215;-81
2022/02/26 10:16:46;;;;;;;1.27;1.23;;;13.00;57.00;;;;;;5050576;28;20213;-82
2022/02/26 10:19:19;;;;;;;1.10;1.10;;;13.20;57.50;;;;;;5040044;28;20220;-83
2022/02/26 10:21:47;;;;;;;1.20;1.10;;;12.80;55.50;;;;;;5041287;28;20615;-84
2022/02/26 10:24:17;;;;;;;1.20;1.20;;;12.90;56.20;;;;;;5059411;28;20231;-84
2022/02/26 10:26:49;;;;;;;0.90;0.90;;;13.00;56.60;;;;;;5045328;28;20586;-82
2022/02/26 10:29:18;;;;;;;1.48;1.17;;;12.90;56.40;;;;;;5047377;28;20229;-82
2022/02/26 10:31:48;;;;;;;1.10;1.10;;;13.10;58.00;;;;;;5049489;28;20352;-82
2022/02/26 10:34:30;;;;;;;1.70;1.60;;;13.30;57.50;;;;;;5045204;28;20275;-85
2022/02/26 10:37:05;;;;;;;2.28;1.10;;;13.20;56.50;;;;;;5056103;28;20187;-82
2022/02/26 10:39:36;;;;;;;1.10;1.10;;;13.40;56.70;;;;;;5054251;28;20219;-83
2022/02/26 10:42:06;;;;;;;1.65;1.40;;;13.50;55.80;;;;;;5060766;28;20180;-83
2022/02/26 10:44:33;;;;;;;1.70;1.60;;;14.00;56.10;;;;;;5057708;28;20226;-83
2022/02/26 10:47:09;;;;;;;1.90;1.60;;;14.30;55.80;;;;;;5045319;28;20268;-83
2022/02/26 10:49:41;;;;;;;1.48;1.38;;;14.20;54.20;;;;;;5053400;28;20222;-83
2022/02/26 10:52:09;;;;;;;1.50;1.40;;;13.90;53.40;;;;;;5055388;28;20210;-83
2022/02/26 10:54:39;;;;;;;4.00;1.20;;;14.00;55.30;;;;;;5048804;28;20235;-84
2022/02/26 10:57:09;;;;;;;1.15;1.15;;;14.00;54.40;;;;;;5057245;28;20187;-82
2022/02/26 10:59:37;;;;;;;1.17;1.17;;;14.00;54.90;;;;;;5050616;28;20226;-81
2022/02/26 11:02:07;;;;;;;1.13;1.10;;;14.10;54.90;;;;;;5059246;28;20215;-83
2022/02/26 11:04:35;;;;;;;0.90;0.90;;;14.10;53.80;;;;;;5075023;23;20302;-75
2022/02/26 11:07:02;;;;;;;1.17;0.93;;;14.10;54.20;;;;;;5041615;28;20252;-74
2022/02/26 11:09:30;;;;;;;0.60;0.60;;;13.80;53.20;;;;;;5040995;28;20222;-75
2022/02/26 11:12:00;;;;;;;1.05;1.05;;;14.00;54.70;;;;;;5046204;28;20294;-75
2022/02/26 11:14:29;;;;;;;0.90;0.90;;;14.00;54.70;;;;;;5043411;28;20215;-76
2022/02/26 11:17:01;;;;;;;0.77;0.77;;;14.00;52.60;;;;;;5041309;28;20199;-78
2022/02/26 11:20:36;;;;;;;1.85;1.10;;;13.60;54.00;;;;;;5081764;27;20310;-75
2022/02/26 11:23:04;;;;;;;2.05;1.27;;;13.50;55.40;;;;;;5077321;28;20877;-73
2022/02/26 11:25:32;;;;;;;2.05;1.20;;;13.90;54.60;;;;;;5085033;28;20223;-74
2022/02/26 11:28:00;;;;;;;1.55;1.08;;;14.00;54.60;;;;;;5080536;28;20198;-75
2022/02/26 11:30:33;;;;;;;1.15;1.15;;;14.20;53.50;;;;;;5067559;28;20236;-75
2022/02/26 11:33:01;;;;;;;1.02;1.02;;;13.90;52.30;;;;;;5058519;28;20194;-75
2022/02/26 11:35:29;;;;;;;1.05;1.00;;;13.70;53.30;;;;;;5058216;28;20214;-75
2022/02/26 11:38:03;;;;;;;1.20;1.10;;;13.90;53.00;;;;;;5054844;28;20202;-74
2022/02/26 11:40:31;;;;;;;1.05;1.02;;;14.10;54.00;;;;;;5059651;28;20724;-75
2022/02/26 11:42:58;;;;;;;1.10;1.05;;;14.20;53.80;;;;;;5059716;28;20190;-74
2022/02/26 11:45:29;;;;;;;0.85;0.85;;;14.30;53.30;;;;;;5059076;28;20217;-73
2022/02/26 11:47:58;;;;;;;1.30;1.20;;;14.00;51.20;;;;;;5058579;28;20625;-74
2022/02/26 11:50:26;;;;;;;1.10;1.10;;;13.80;53.60;;;;;;5069596;28;20225;-74
2022/02/26 11:52:58;;;;;;;1.35;1.30;;;13.80;53.50;;;;;;5080192;28;20215;-75
2022/02/26 11:55:34;;;;;;;1.20;1.20;;;13.90;53.20;;;;;;5067922;28;20226;-76
2022/02/26 11:58:03;;;;;;;1.10;1.10;;;14.00;53.80;;;;;;5056761;28;20567;-77
2022/02/26 12:00:33;;;;;;;0.90;0.90;;;14.10;53.40;;;;;;5060584;28;20754;-75
2022/02/26 12:03:30;;;;;;;1.27;1.17;;;14.20;53.30;;;;;;5052009;28;20221;-75
2022/02/26 12:06:30;;;;;;;1.05;1.05;;;14.00;52.50;;;;;;5054327;28;20226;-75
2022/02/26 12:09:01;;;;;;;1.02;1.02;;;14.30;54.00;;;;;;5054061;28;20334;-76
2022/02/26 12:11:38;;;;;;;1.05;1.00;;;14.30;52.30;;;;;;5052727;28;20225;-73
2022/02/26 12:14:07;;;;;;;0.90;0.88;;;14.00;51.60;;;;;;5055575;28;20198;-75
2022/02/26 12:16:38;;;;;;;1.27;1.27;;;14.00;53.50;;;;;;5054601;28;20233;-75
2022/02/26 12:19:07;;;;;;;1.27;0.93;;;14.10;53.10;;;;;;5051318;28;20229;-75
2022/02/26 12:21:36;;;;;;;1.25;1.20;;;14.30;53.00;;;;;;5054753;28;20222;-76
2022/02/26 12:24:12;;;;;;;1.25;1.20;;;14.40;53.00;;;;;;5054256;28;20961;-75
2022/02/26 12:26:45;;;;;;;1.10;1.10;;;14.40;53.00;;;;;;5050673;28;20307;-75
2022/02/26 12:29:33;;;;;;;1.08;1.05;;;14.30;53.50;;;;;;5048372;28;20223;-75
2022/02/26 12:32:03;;;;;;;1.15;1.15;;;14.20;51.90;;;;;;5061322;28;20218;-75
2022/02/26 12:34:32;;;;;;;1.13;1.05;;;14.10;51.90;;;;;;5062411;28;20967;-73
2022/02/26 12:37:30;;;;;;;0.95;0.95;;;14.00;51.50;;;;;;5047044;28;20226;-73
2022/02/26 12:40:31;;;;;;;1.10;1.10;;;13.90;50.40;;;;;;5038970;28;21188;-75
2022/02/26 12:43:04;;;;;;;0.95;0.93;;;14.00;54.00;;;;;;5038801;28;20210;-74
2022/02/26 12:45:39;;;;;;;1.30;1.17;;;14.30;52.50;;;;;;5038144;28;20887;-75
2022/02/26 12:48:10;;;;;;;1.17;1.17;;;14.40;53.00;;;;;;5040386;28;20258;-73
2022/02/26 12:50:38;;;;;;;0.90;0.90;;;14.70;53.70;;;;;;5037820;28;20206;-73
2022/02/26 12:53:06;;;;;;;1.40;1.13;;;14.50;51.60;;;;;;5063880;28;20222;-74
2022/02/26 12:55:48;;;;;;;0.90;0.77;;;14.50;52.50;;;;;;5041854;28;20261;-72
2022/02/26 12:58:26;;;;;;;0.90;0.90;;;14.30;49.80;;;;;;5036972;28;20314;-75
2022/02/26 13:01:13;;;;;;;1.17;1.10;;;14.30;52.50;;;;;;5037459;28;20215;-74
2022/02/26 13:03:42;;;;;;;1.10;1.10;;;14.20;51.20;;;;;;5042834;28;20279;-75